Terminal Aerodrome Forecast
Issued by NWS Sioux Falls, SD

Home | Current Version | Previous Version | Text Only | Print | Product List | Glossary On
Versions: 1 2 3 4 5 6 7 8 9 10 11 12 13 14 15 16 17 18 19 20 21 22 23 24 25 26 27
000
FTUS43 KFSD 220521
TAFSUX
TAF
KSUX 220521Z 2206/2306 13010KT P6SM SCT050
     FM221000 14013KT P6SM SCT050 BKN150
     FM221400 16017G25KT P6SM SCT035 SCT120
     FM222100 22010KT 3SM -RA BKN015
     FM230200 27006KT P6SM BKN015=

USA.gov is the U.S. government's official web portal to all federal, state and local government web resources and services.